Time;durP1;ratioP1;P1;durP2;ratioP2;P2;SDS_P1;SDS_P2;PMS_P1;PMS_P2;Temp;Humidity;BMP_temperature;BMP_pressure;BME280_temperature;BME280_humidity;BME280_pressure;Samples;Min_cycle;Max_cycle;Signal;HPM_P1;HPM_P2
2021/06/12 00:01:02;;;;;;;19.08;14.15;;;17.00;86.40;;;;;;5112201;28;20192;-89
2021/06/12 00:03:28;;;;;;;19.58;14.70;;;17.00;86.50;;;;;;5095274;28;20281;-88
2021/06/12 00:05:54;;;;;;;19.90;14.40;;;16.90;86.80;;;;;;5095268;28;20641;-88
2021/06/12 00:08:19;;;;;;;17.88;13.75;;;17.00;86.70;;;;;;5095112;28;20176;-88
2021/06/12 00:10:46;;;;;;;18.20;14.70;;;17.10;86.40;;;;;;5112164;28;20650;-88
2021/06/12 00:13:13;;;;;;;19.15;15.30;;;17.10;86.20;;;;;;5095201;28;20614;-89
2021/06/12 00:15:38;;;;;;;19.90;15.98;;;16.90;86.80;;;;;;5098977;28;20202;-88
2021/06/12 00:18:07;;;;;;;19.00;14.52;;;16.90;87.10;;;;;;5117293;28;20176;-88
2021/06/12 00:20:37;;;;;;;18.77;14.88;;;17.00;86.70;;;;;;5117136;28;20166;-88
2021/06/12 00:23:04;;;;;;;20.48;16.23;;;17.20;86.20;;;;;;5098938;28;20541;-88
2021/06/12 00:25:31;;;;;;;21.75;16.10;;;17.10;86.50;;;;;;5116790;28;20186;-88
2021/06/12 00:27:58;;;;;;;20.25;15.10;;;17.20;86.20;;;;;;5115801;28;20162;-88
2021/06/12 00:30:25;;;;;;;23.73;17.17;;;17.20;86.60;;;;;;5098662;28;20173;-88
2021/06/12 00:32:50;;;;;;;25.50;18.08;;;17.10;87.30;;;;;;5117113;28;20568;-88
2021/06/12 00:35:16;;;;;;;22.45;16.33;;;17.10;87.40;;;;;;5116805;28;20211;-88
2021/06/12 00:37:42;;;;;;;25.33;17.88;;;17.10;87.40;;;;;;5116778;28;20173;-88
2021/06/12 00:40:11;;;;;;;25.70;18.58;;;17.20;87.40;;;;;;5115471;28;20201;-88
2021/06/12 00:42:40;;;;;;;22.67;18.23;;;17.10;87.50;;;;;;5098508;28;20185;-88
2021/06/12 00:45:08;;;;;;;24.67;16.67;;;17.10;87.60;;;;;;5116587;28;20177;-88
2021/06/12 00:47:35;;;;;;;23.83;17.00;;;17.10;87.70;;;;;;5098255;28;20677;-88
2021/06/12 00:50:01;;;;;;;22.23;17.10;;;17.20;87.10;;;;;;5116563;28;20276;-88
2021/06/12 00:52:26;;;;;;;22.42;16.63;;;17.20;87.00;;;;;;5098393;28;20182;-88
2021/06/12 00:54:52;;;;;;;24.55;17.65;;;17.20;86.50;;;;;;5116478;28;20174;-88
2021/06/12 00:57:19;;;;;;;23.77;16.30;;;17.20;86.90;;;;;;5116319;28;20197;-88
2021/06/12 00:59:45;;;;;;;20.75;16.65;;;17.20;86.70;;;;;;5116386;28;20633;-88
2021/06/12 01:02:11;;;;;;;20.67;16.58;;;17.30;86.80;;;;;;5115203;28;20185;-88
2021/06/12 01:04:36;;;;;;;29.92;18.05;;;17.30;86.80;;;;;;5098106;28;20258;-88
2021/06/12 01:07:02;;;;;;;21.52;15.93;;;17.30;86.70;;;;;;5097858;28;20243;-87
2021/06/12 01:09:28;;;;;;;27.60;17.67;;;17.30;86.90;;;;;;5116457;28;20349;-88
2021/06/12 01:12:11;;;;;;;28.13;17.17;;;17.30;87.20;;;;;;5097853;28;20170;-87
2021/06/12 01:14:42;;;;;;;33.15;23.02;;;17.20;88.00;;;;;;5097865;28;20162;-87
2021/06/12 01:17:12;;;;;;;37.75;24.67;;;17.20;88.30;;;;;;5115982;28;20190;-87
2021/06/12 01:19:38;;;;;;;24.65;19.13;;;17.10;88.50;;;;;;5115997;28;20158;-87
2021/06/12 01:22:12;;;;;;;23.13;17.92;;;17.20;88.50;;;;;;5114821;28;20676;-88
2021/06/12 01:24:56;;;;;;;26.08;17.23;;;17.20;88.50;;;;;;5097212;28;20177;-88
2021/06/12 01:27:40;;;;;;;20.30;16.27;;;17.20;87.80;;;;;;5115659;28;20205;-87
2021/06/12 01:30:10;;;;;;;24.75;16.45;;;17.30;87.70;;;;;;5114502;28;20660;-88
2021/06/12 01:33:01;;;;;;;25.63;16.38;;;17.40;87.40;;;;;;5115783;28;20661;-88
2021/06/12 01:35:35;;;;;;;24.15;15.93;;;17.30;87.80;;;;;;5086757;28;20213;-88
2021/06/12 01:38:03;;;;;;;20.50;15.25;;;17.30;87.80;;;;;;5097444;28;20170;-88
2021/06/12 01:40:32;;;;;;;20.13;14.45;;;17.30;87.40;;;;;;5097298;28;20253;-87
2021/06/12 01:42:59;;;;;;;17.38;13.40;;;17.30;87.20;;;;;;5114289;28;20185;-88
2021/06/12 01:45:26;;;;;;;14.02;12.48;;;17.40;86.90;;;;;;5097078;28;20233;-87
2021/06/12 01:47:55;;;;;;;18.70;13.50;;;17.40;86.90;;;;;;5097226;28;20209;-87
2021/06/12 01:50:22;;;;;;;16.30;12.93;;;17.40;86.80;;;;;;5115382;28;20634;-88
2021/06/12 01:52:51;;;;;;;16.52;13.23;;;17.40;86.50;;;;;;5114106;28;20184;-87
2021/06/12 01:55:20;;;;;;;15.70;13.48;;;17.40;86.80;;;;;;5115172;28;20170;-88
2021/06/12 01:57:46;;;;;;;22.33;17.83;;;17.40;87.30;;;;;;5097118;28;20557;-88
2021/06/12 02:00:13;;;;;;;29.98;18.45;;;17.30;88.00;;;;;;5096948;28;20182;-88
2021/06/12 02:02:40;;;;;;;22.63;16.92;;;17.20;88.80;;;;;;5096954;28;20665;-88
2021/06/12 02:05:08;;;;;;;26.63;17.65;;;17.20;88.90;;;;;;5096709;28;20235;-89
2021/06/12 02:07:36;;;;;;;26.13;19.55;;;17.20;88.80;;;;;;5096701;28;20198;-89
2021/06/12 02:10:03;;;;;;;26.35;19.30;;;17.10;89.00;;;;;;5113840;28;20178;-88
2021/06/12 02:12:29;;;;;;;29.27;19.92;;;17.10;89.50;;;;;;5115216;28;20214;-89
2021/06/12 02:14:59;;;;;;;27.08;18.17;;;17.00;89.30;;;;;;5115293;28;20184;-89
2021/06/12 02:17:26;;;;;;;25.13;19.90;;;17.10;89.30;;;;;;5114909;28;20190;-89
2021/06/12 02:19:52;;;;;;;25.27;20.17;;;17.00;89.30;;;;;;5114858;28;20162;-89
2021/06/12 02:22:18;;;;;;;22.50;17.67;;;17.10;89.20;;;;;;5113846;28;20243;-89
2021/06/12 02:24:44;;;;;;;22.33;18.23;;;17.20;89.20;;;;;;5115009;28;20168;-89
2021/06/12 02:27:10;;;;;;;28.10;18.88;;;17.20;89.10;;;;;;5113240;28;20652;-89
2021/06/12 02:29:38;;;;;;;33.20;21.10;;;17.20;88.90;;;;;;5096419;28;20193;-89
2021/06/12 02:32:09;;;;;;;36.58;22.90;;;17.10;89.10;;;;;;5096451;28;20642;-89
2021/06/12 02:34:37;;;;;;;41.90;24.83;;;17.10;89.10;;;;;;5114598;28;20170;-89
2021/06/12 02:37:05;;;;;;;37.55;25.23;;;17.00;89.80;;;;;;5113709;28;20246;-89
2021/06/12 02:39:32;;;;;;;45.20;28.80;;;17.00;90.00;;;;;;5096296;28;20273;-89
2021/06/12 02:41:57;;;;;;;41.17;25.40;;;16.90;90.20;;;;;;5096288;28;20178;-89
2021/06/12 02:44:23;;;;;;;47.08;27.80;;;16.80;90.40;;;;;;5096263;28;20178;-89
2021/06/12 02:46:49;;;;;;;38.72;25.90;;;16.80;90.50;;;;;;5096179;28;20290;-89
2021/06/12 02:49:20;;;;;;;45.20;25.25;;;16.90;90.30;;;;;;5096094;28;20264;-89
2021/06/12 02:51:50;;;;;;;35.08;23.40;;;16.80;90.60;;;;;;5096434;28;20169;-89
2021/06/12 02:54:21;;;;;;;40.88;23.45;;;16.70;90.90;;;;;;5096177;28;20160;-89
2021/06/12 02:56:47;;;;;;;34.40;22.27;;;16.70;91.10;;;;;;5114198;28;20277;-89
2021/06/12 02:59:17;;;;;;;29.98;19.75;;;16.70;91.00;;;;;;5114175;28;20170;-89
2021/06/12 03:01:44;;;;;;;29.35;16.17;;;16.70;90.80;;;;;;5114472;28;20606;-89
2021/06/12 03:04:14;;;;;;;22.63;15.55;;;16.60;90.10;;;;;;5095908;28;20555;-89
2021/06/12 03:06:42;;;;;;;26.65;16.02;;;16.70;90.10;;;;;;5095748;28;20201;-89
2021/06/12 03:09:16;;;;;;;19.55;14.40;;;16.70;90.10;;;;;;5114053;28;20178;-89
2021/06/12 03:11:44;;;;;;;22.88;15.63;;;16.70;90.10;;;;;;5114041;28;20158;-89
2021/06/12 03:14:11;;;;;;;20.20;12.88;;;16.60;90.10;;;;;;5114018;28;20645;-89
2021/06/12 03:16:40;;;;;;;19.77;13.02;;;16.60;89.80;;;;;;5113857;28;20768;-89
2021/06/12 03:19:06;;;;;;;16.48;12.20;;;16.70;89.70;;;;;;5095771;28;20169;-89
2021/06/12 03:21:33;;;;;;;22.13;14.30;;;16.70;89.70;;;;;;5113870;28;20181;-89
2021/06/12 03:23:59;;;;;;;19.63;13.75;;;16.70;89.90;;;;;;5095649;28;20272;-89
2021/06/12 03:26:26;;;;;;;18.38;12.13;;;16.70;89.50;;;;;;5112320;28;20206;-89
2021/06/12 03:28:53;;;;;;;19.33;12.50;;;16.70;89.50;;;;;;5113723;28;20158;-89
2021/06/12 03:31:19;;;;;;;18.58;12.23;;;16.60;89.50;;;;;;5112658;28;20741;-89
2021/06/12 03:33:46;;;;;;;19.88;12.77;;;16.60;89.40;;;;;;5095604;28;20185;-89
2021/06/12 03:36:13;;;;;;;26.63;13.75;;;16.60;89.60;;;;;;5113628;28;20197;-89
2021/06/12 03:38:39;;;;;;;16.52;12.55;;;16.60;89.70;;;;;;5113709;28;20201;-89
2021/06/12 03:41:06;;;;;;;20.00;12.35;;;16.60;89.40;;;;;;5095428;28;20216;-89
2021/06/12 03:43:34;;;;;;;22.15;12.32;;;16.60;89.40;;;;;;5112532;28;20242;-89
2021/06/12 03:46:01;;;;;;;23.30;13.57;;;16.60;89.60;;;;;;5095374;28;20568;-89
2021/06/12 03:48:27;;;;;;;22.92;14.30;;;16.60;89.40;;;;;;5115608;28;20165;-89
2021/06/12 03:50:54;;;;;;;20.08;14.18;;;16.70;89.20;;;;;;5116550;28;20170;-89
2021/06/12 03:53:20;;;;;;;22.13;16.02;;;16.60;89.50;;;;;;5116525;28;20526;-89
2021/06/12 03:55:54;;;;;;;22.02;14.55;;;16.60;89.70;;;;;;5116491;28;20611;-89
2021/06/12 03:58:20;;;;;;;22.52;15.05;;;16.70;89.20;;;;;;5118083;28;20186;-89
2021/06/12 04:00:45;;;;;;;26.10;15.60;;;16.70;88.90;;;;;;5116431;28;20182;-89
2021/06/12 04:03:11;;;;;;;24.17;15.52;;;16.70;89.00;;;;;;5116382;28;20261;-89
2021/06/12 04:05:37;;;;;;;20.92;14.85;;;16.70;89.10;;;;;;5116125;28;20213;-89
2021/06/12 04:08:02;;;;;;;23.52;16.02;;;16.70;89.10;;;;;;5116597;28;20537;-89
2021/06/12 04:10:28;;;;;;;26.75;16.90;;;16.70;89.10;;;;;;5099185;28;20178;-89
2021/06/12 04:12:54;;;;;;;22.05;16.48;;;16.70;89.20;;;;;;5099090;28;20170;-89
2021/06/12 04:15:19;;;;;;;25.65;16.73;;;16.80;89.10;;;;;;5117252;28;20170;-89
2021/06/12 04:17:45;;;;;;;27.83;16.70;;;16.80;89.00;;;;;;5117283;28;20169;-89
2021/06/12 04:20:13;;;;;;;25.80;17.13;;;16.80;88.80;;;;;;5099018;28;20260;-89
2021/06/12 04:22:39;;;;;;;32.03;18.60;;;16.90;88.80;;;;;;5115943;28;20201;-89
2021/06/12 04:25:06;;;;;;;25.70;17.08;;;16.80;89.00;;;;;;5115873;28;20177;-89
2021/06/12 04:27:33;;;;;;;32.00;19.33;;;16.80;89.20;;;;;;5098605;28;20209;-89
2021/06/12 04:29:59;;;;;;;32.83;19.15;;;16.90;89.10;;;;;;5098747;28;20181;-89
2021/06/12 04:32:25;;;;;;;31.90;19.55;;;16.90;89.00;;;;;;5117054;28;20256;-89
2021/06/12 04:34:50;;;;;;;33.60;20.75;;;16.90;89.10;;;;;;5115696;28;20605;-89
2021/06/12 04:37:16;;;;;;;37.25;20.95;;;16.90;89.40;;;;;;5116859;28;20554;-89
2021/06/12 04:39:42;;;;;;;32.67;21.27;;;17.00;89.40;;;;;;5098636;28;20227;-88
2021/06/12 04:42:09;;;;;;;39.83;22.55;;;16.90;89.70;;;;;;5115573;28;20174;-89
2021/06/12 04:44:35;;;;;;;34.78;21.27;;;16.90;89.80;;;;;;5098609;28;20177;-89
2021/06/12 04:47:01;;;;;;;35.42;21.38;;;16.90;89.90;;;;;;5116623;28;20233;-89
2021/06/12 04:49:27;;;;;;;37.45;21.15;;;16.90;89.80;;;;;;5116697;28;20645;-89
2021/06/12 04:51:52;;;;;;;44.28;23.35;;;16.90;89.80;;;;;;5116303;28;20184;-89
2021/06/12 04:54:18;;;;;;;39.15;23.42;;;16.90;89.80;;;;;;5116924;28;20178;-89
2021/06/12 04:56:44;;;;;;;35.05;22.33;;;16.90;89.80;;;;;;5098490;28;20194;-89
2021/06/12 04:59:09;;;;;;;43.80;24.17;;;17.00;89.80;;;;;;5115883;28;20170;-90
2021/06/12 05:01:35;;;;;;;42.78;23.92;;;17.00;89.90;;;;;;5098372;28;20227;-89
2021/06/12 05:04:01;;;;;;;40.10;24.85;;;17.10;89.80;;;;;;5115199;28;20174;-89
2021/06/12 05:06:26;;;;;;;40.47;23.88;;;17.10;89.80;;;;;;5116374;28;20213;-89
2021/06/12 05:08:52;;;;;;;36.72;23.65;;;17.00;89.80;;;;;;5116247;28;20230;-90
2021/06/12 05:11:18;;;;;;;41.20;24.63;;;17.00;89.90;;;;;;5097944;28;20178;-90
2021/06/12 05:13:44;;;;;;;37.72;22.70;;;17.10;89.90;;;;;;5116199;28;20158;-89
2021/06/12 05:16:09;;;;;;;39.13;23.48;;;17.10;89.80;;;;;;5097884;28;20198;-89
2021/06/12 05:18:43;;;;;;;41.75;25.02;;;17.20;89.80;;;;;;5097882;28;20676;-89
2021/06/12 05:21:10;;;;;;;39.67;24.50;;;17.00;90.10;;;;;;5097739;28;20197;-89
2021/06/12 05:23:36;;;;;;;45.03;25.92;;;17.00;90.60;;;;;;5116376;28;20174;-89
2021/06/12 05:26:05;;;;;;;44.53;26.55;;;17.00;90.40;;;;;;5132264;22;20220;-90
2021/06/12 05:28:31;;;;;;;41.15;25.60;;;17.00;90.40;;;;;;4973689;28;20171;-89
2021/06/12 05:30:57;;;;;;;42.92;26.00;;;17.10;90.40;;;;;;4972172;28;20228;-89
2021/06/12 05:33:26;;;;;;;44.22;26.80;;;17.10;90.50;;;;;;4973307;28;20171;-89
2021/06/12 05:35:52;;;;;;;48.83;28.17;;;17.10;90.50;;;;;;4956190;28;20188;-89
2021/06/12 05:38:18;;;;;;;49.75;28.17;;;17.00;90.60;;;;;;4955934;28;20190;-89
2021/06/12 05:40:45;;;;;;;49.35;27.58;;;17.10;90.80;;;;;;4956217;28;20183;-89
2021/06/12 05:43:11;;;;;;;52.22;28.73;;;17.10;90.90;;;;;;4971967;28;20556;-89
2021/06/12 05:45:37;;;;;;;46.55;27.63;;;17.20;90.90;;;;;;4955816;28;20579;-89
2021/06/12 05:48:03;;;;;;;50.53;28.98;;;17.10;90.80;;;;;;4973107;28;20270;-89
2021/06/12 05:50:29;;;;;;;48.67;27.08;;;17.20;90.80;;;;;;4956118;28;20623;-89
2021/06/12 05:52:55;;;;;;;50.33;28.33;;;17.20;90.60;;;;;;4955731;28;20191;-87
2021/06/12 05:55:20;;;;;;;54.45;29.73;;;17.20;90.40;;;;;;4973123;28;20171;-87
2021/06/12 05:57:46;;;;;;;47.65;28.48;;;17.20;90.50;;;;;;4972895;28;20560;-87
2021/06/12 06:00:13;;;;;;;43.50;28.27;;;17.30;90.40;;;;;;4955684;28;20198;-87
2021/06/12 06:02:38;;;;;;;42.63;27.83;;;17.30;90.30;;;;;;4955495;28;20228;-87
2021/06/12 06:05:05;;;;;;;45.03;27.83;;;17.40;90.00;;;;;;4955384;28;20187;-87
2021/06/12 06:07:30;;;;;;;41.85;26.60;;;17.40;89.60;;;;;;4972654;28;20281;-87
2021/06/12 06:09:57;;;;;;;47.70;28.52;;;17.40;89.70;;;;;;4955504;28;20217;-86
2021/06/12 06:12:23;;;;;;;38.15;26.40;;;17.30;89.70;;;;;;4955425;28;20175;-87
2021/06/12 06:14:48;;;;;;;39.42;25.50;;;17.30;89.50;;;;;;4955846;28;20205;-87
2021/06/12 06:17:14;;;;;;;36.30;25.23;;;17.30;89.40;;;;;;4972724;28;20187;-86
2021/06/12 06:19:40;;;;;;;39.10;21.65;;;17.30;89.30;;;;;;4955474;28;20296;-87
2021/06/12 06:22:05;;;;;;;29.02;19.55;;;17.30;88.90;;;;;;4955311;28;20193;-87
2021/06/12 06:24:32;;;;;;;29.63;21.08;;;17.30;88.60;;;;;;4955235;28;20178;-87
2021/06/12 06:26:59;;;;;;;31.38;21.70;;;17.30;88.50;;;;;;4955116;28;20591;-87
2021/06/12 06:29:25;;;;;;;23.63;17.40;;;17.30;88.70;;;;;;4955294;28;20171;-87
2021/06/12 06:31:51;;;;;;;33.08;18.88;;;17.30;88.10;;;;;;4955233;28;20229;-86
2021/06/12 06:34:16;;;;;;;25.00;17.05;;;17.30;88.30;;;;;;4955267;28;20193;-87
2021/06/12 06:36:42;;;;;;;24.42;15.40;;;17.40;88.10;;;;;;4971256;28;20233;-86
2021/06/12 06:39:08;;;;;;;21.00;14.23;;;17.30;87.40;;;;;;4955316;28;20181;-86
2021/06/12 06:41:33;;;;;;;23.35;14.57;;;17.20;87.60;;;;;;4955072;28;20673;-86
2021/06/12 06:43:59;;;;;;;23.23;14.13;;;17.20;87.30;;;;;;4972263;28;20548;-87
2021/06/12 06:46:25;;;;;;;21.05;14.10;;;17.30;87.20;;;;;;4954888;28;20624;-87
2021/06/12 06:48:51;;;;;;;22.55;13.23;;;17.30;87.10;;;;;;4972553;28;20167;-87
2021/06/12 06:51:17;;;;;;;18.40;13.27;;;17.20;87.20;;;;;;4955158;28;20266;-87
2021/06/12 06:53:42;;;;;;;20.75;13.13;;;17.30;87.40;;;;;;4955051;28;20205;-87
2021/06/12 06:56:08;;;;;;;19.67;13.23;;;17.30;87.70;;;;;;4954914;28;20179;-87
2021/06/12 06:58:34;;;;;;;16.00;11.93;;;17.30;87.60;;;;;;4972517;28;20590;-87
2021/06/12 07:01:00;;;;;;;17.77;13.15;;;17.40;87.30;;;;;;4972194;28;20178;-87
2021/06/12 07:03:26;;;;;;;18.50;12.02;;;17.40;87.40;;;;;;4954819;28;20175;-87
2021/06/12 07:05:53;;;;;;;21.65;13.50;;;17.40;87.40;;;;;;4970995;28;20244;-87
2021/06/12 07:08:19;;;;;;;21.98;12.98;;;17.40;87.40;;;;;;4954703;28;20262;-86
2021/06/12 07:10:45;;;;;;;17.88;12.95;;;17.30;87.50;;;;;;4972317;28;20235;-87
2021/06/12 07:13:10;;;;;;;16.60;10.90;;;17.40;87.70;;;;;;4954701;28;20609;-87
2021/06/12 07:15:36;;;;;;;15.40;11.00;;;17.30;86.40;;;;;;4972130;28;20175;-86
2021/06/12 07:18:02;;;;;;;12.48;9.93;;;17.20;86.30;;;;;;4972093;28;20195;-87
2021/06/12 07:20:27;;;;;;;13.02;10.02;;;17.30;86.20;;;;;;4954763;28;20212;-86
2021/06/12 07:22:54;;;;;;;16.80;9.70;;;17.20;86.30;;;;;;4954118;28;20532;-87
2021/06/12 07:25:20;;;;;;;14.50;9.70;;;17.30;86.10;;;;;;4956744;28;20205;-90
2021/06/12 07:27:46;;;;;;;14.73;9.57;;;17.30;86.50;;;;;;4973071;28;20210;-90
2021/06/12 07:30:12;;;;;;;18.35;10.60;;;17.40;86.20;;;;;;4973384;28;20186;-90
2021/06/12 07:32:38;;;;;;;16.20;10.20;;;17.40;85.70;;;;;;4972486;28;20186;-90
2021/06/12 07:35:04;;;;;;;15.00;11.13;;;17.30;86.00;;;;;;4972314;28;20179;-90
2021/06/12 07:37:30;;;;;;;14.07;10.63;;;17.30;86.00;;;;;;4974051;28;20187;-90
2021/06/12 07:39:56;;;;;;;17.52;11.95;;;17.10;85.40;;;;;;4972346;28;20201;-90
2021/06/12 07:42:21;;;;;;;17.17;12.75;;;17.20;85.50;;;;;;4973290;28;20627;-93
2021/06/12 07:44:47;;;;;;;17.50;12.75;;;17.10;85.80;;;;;;4975626;28;20179;-90
2021/06/12 07:47:13;;;;;;;20.60;13.27;;;17.20;86.20;;;;;;4973775;28;20210;-90
2021/06/12 07:49:39;;;;;;;17.92;12.90;;;17.30;86.40;;;;;;4972124;28;20647;-90
2021/06/12 07:52:05;;;;;;;17.02;12.80;;;17.50;85.50;;;;;;4972097;28;20178;-90
2021/06/12 07:54:31;;;;;;;21.02;13.27;;;17.60;85.00;;;;;;4972090;28;20686;-90
2021/06/12 07:56:56;;;;;;;25.75;12.40;;;17.70;85.30;;;;;;4955091;28;20199;-90
2021/06/12 07:59:22;;;;;;;16.85;10.80;;;17.80;85.30;;;;;;4971994;28;20171;-89
2021/06/12 08:01:47;;;;;;;15.38;9.65;;;17.90;84.40;;;;;;4971791;28;20249;-90
2021/06/12 08:04:13;;;;;;;16.27;8.57;;;17.90;83.70;;;;;;4971975;28;20183;-89
2021/06/12 08:06:39;;;;;;;13.20;9.02;;;17.90;82.90;;;;;;4954492;28;20709;-89
2021/06/12 08:09:05;;;;;;;15.95;8.65;;;17.80;82.90;;;;;;4971762;28;20659;-89
2021/06/12 08:11:30;;;;;;;12.73;5.82;;;17.90;83.60;;;;;;4971608;28;20163;-90
2021/06/12 08:13:56;;;;;;;15.60;5.82;;;17.90;81.50;;;;;;4971751;28;20167;-90
2021/06/12 08:16:22;;;;;;;16.02;6.32;;;17.90;80.80;;;;;;4971721;28;20194;-89
2021/06/12 08:18:47;;;;;;;16.80;5.93;;;17.90;81.30;;;;;;4954353;28;20179;-89
2021/06/12 08:21:13;;;;;;;10.15;5.70;;;18.00;81.10;;;;;;4954496;28;20183;-89
2021/06/12 08:23:39;;;;;;;8.60;6.05;;;18.00;81.30;;;;;;4971791;28;20179;-89
2021/06/12 08:26:05;;;;;;;10.68;5.25;;;17.70;81.10;;;;;;4971380;28;20211;-90
2021/06/12 08:28:31;;;;;;;12.13;5.82;;;17.80;80.10;;;;;;4954548;28;20271;-90
2021/06/12 08:30:58;;;;;;;7.68;4.95;;;17.70;79.90;;;;;;4972029;28;20194;-89
2021/06/12 08:33:24;;;;;;;10.57;6.25;;;17.40;79.80;;;;;;4972385;28;20178;-90
2021/06/12 08:35:50;;;;;;;14.68;5.78;;;17.50;79.90;;;;;;4958347;28;20183;-91
2021/06/12 08:38:16;;;;;;;13.32;5.70;;;17.70;80.20;;;;;;4977861;28;20190;-89
2021/06/12 08:40:42;;;;;;;11.07;5.32;;;17.80;80.00;;;;;;4974684;28;20175;-89
2021/06/12 08:43:09;;;;;;;13.02;5.72;;;17.90;79.30;;;;;;4957505;28;20175;-89
2021/06/12 08:45:35;;;;;;;10.80;4.82;;;17.90;77.70;;;;;;4974254;28;20194;-89
2021/06/12 08:48:02;;;;;;;14.82;5.80;;;18.00;78.50;;;;;;4957358;28;20198;-90
2021/06/12 08:50:29;;;;;;;15.05;5.63;;;18.20;78.80;;;;;;4974325;28;20250;-91
2021/06/12 08:52:56;;;;;;;9.57;4.65;;;17.90;78.20;;;;;;4974704;28;20168;-89
2021/06/12 08:55:23;;;;;;;14.88;5.28;;;18.00;78.40;;;;;;4957500;28;20183;-90
2021/06/12 08:57:54;;;;;;;12.00;4.63;;;18.20;77.70;;;;;;4975155;28;20240;-90
2021/06/12 09:00:21;;;;;;;9.10;4.72;;;18.00;77.80;;;;;;4957845;28;20175;-90
2021/06/12 09:03:14;;;;;;;8.35;4.45;;;18.10;75.90;;;;;;4956674;28;20601;-89
2021/06/12 09:05:47;;;;;;;12.05;4.60;;;18.10;76.80;;;;;;4957149;28;20198;-89
2021/06/12 09:08:13;;;;;;;10.90;4.03;;;18.10;75.70;;;;;;4974054;28;20190;-89
2021/06/12 09:10:56;;;;;;;11.77;4.38;;;18.30;75.30;;;;;;4957961;28;20286;-90
2021/06/12 09:13:54;;;;;;;8.18;4.50;;;18.50;74.30;;;;;;4975467;28;20159;-89
2021/06/12 09:16:25;;;;;;;10.57;3.38;;;18.80;73.50;;;;;;4946713;28;20232;-89
2021/06/12 09:19:04;;;;;;;11.20;3.03;;;18.70;71.00;;;;;;4956546;28;20171;-88
2021/06/12 09:21:34;;;;;;;10.88;3.40;;;18.70;70.90;;;;;;4956521;28;20171;-89
2021/06/12 09:24:03;;;;;;;9.55;3.17;;;18.70;71.60;;;;;;4956555;28;20267;-89
2021/06/12 09:27:08;;;;;;;5.57;3.08;;;18.60;72.20;;;;;;4956527;28;20221;-88
2021/06/12 09:29:41;;;;;;;7.68;2.53;;;18.60;72.40;;;;;;4952556;29;20678;-86
2021/06/12 09:32:18;;;;;;;10.50;2.97;;;18.70;71.20;;;;;;4954185;28;20182;-87
2021/06/12 09:34:46;;;;;;;10.98;4.95;;;18.70;70.80;;;;;;4956445;28;20190;-89
2021/06/12 09:37:14;;;;;;;3.70;1.75;;;19.00;70.60;;;;;;4973619;28;20206;-90
2021/06/12 09:39:41;;;;;;;4.13;1.98;;;19.00;68.90;;;;;;4973930;28;20175;-90
2021/06/12 09:42:07;;;;;;;6.35;1.90;;;18.80;67.00;;;;;;4973728;28;20179;-89
2021/06/12 09:44:38;;;;;;;6.10;2.13;;;18.60;67.50;;;;;;4973647;28;20254;-88
2021/06/12 09:47:20;;;;;;;12.80;2.58;;;18.50;67.50;;;;;;4956011;28;20218;-89
2021/06/12 09:49:45;;;;;;;9.98;2.42;;;18.50;68.10;;;;;;4973830;28;20163;-88
2021/06/12 09:52:13;;;;;;;4.88;2.38;;;18.70;68.90;;;;;;4973494;28;20221;-89
2021/06/12 09:54:51;;;;;;;5.20;1.88;;;18.70;68.30;;;;;;4973383;28;20174;-89
2021/06/12 09:57:24;;;;;;;6.93;2.13;;;18.60;64.90;;;;;;4973579;28;20277;-91
2021/06/12 09:59:55;;;;;;;8.45;1.98;;;18.50;66.70;;;;;;4956135;28;20581;-89
2021/06/12 10:02:45;;;;;;;7.50;2.17;;;18.80;67.00;;;;;;4956161;28;20618;-89
2021/06/12 10:05:14;;;;;;;10.10;2.30;;;18.90;66.90;;;;;;4956817;28;20565;-89
2021/06/12 10:07:41;;;;;;;8.10;1.52;;;18.70;65.30;;;;;;4955898;28;20203;-89
2021/06/12 10:10:11;;;;;;;6.00;1.85;;;18.60;62.10;;;;;;4956199;28;20171;-89
2021/06/12 10:12:37;;;;;;;5.25;1.75;;;18.40;63.30;;;;;;4973317;28;20245;-89
2021/06/12 10:15:06;;;;;;;3.60;2.00;;;18.40;65.00;;;;;;4956140;28;20270;-90
2021/06/12 10:17:41;;;;;;;6.35;2.03;;;18.50;65.20;;;;;;4955979;28;20199;-92
2021/06/12 10:20:07;;;;;;;9.48;2.55;;;18.80;64.40;;;;;;4957066;28;20517;-92
2021/06/12 10:22:34;;;;;;;5.45;1.92;;;18.80;63.60;;;;;;4973581;28;20321;-90
2021/06/12 10:25:00;;;;;;;7.32;2.33;;;19.00;63.70;;;;;;4973520;28;20206;-92
2021/06/12 10:27:26;;;;;;;6.63;2.53;;;18.70;64.40;;;;;;4972682;28;20211;-92
2021/06/12 10:29:52;;;;;;;6.07;1.95;;;18.60;65.20;;;;;;4974085;28;20696;-92
2021/06/12 10:32:19;;;;;;;9.27;3.10;;;18.50;65.80;;;;;;4981929;28;20183;-92
2021/06/12 10:34:49;;;;;;;8.32;2.58;;;18.30;65.30;;;;;;4985887;28;20174;-94
2021/06/12 10:37:17;;;;;;;9.77;2.20;;;18.20;67.60;;;;;;4975499;28;20566;-91
2021/06/12 10:39:43;;;;;;;6.40;2.20;;;18.50;66.80;;;;;;4959641;28;20721;-93
2021/06/12 10:42:18;;;;;;;4.28;2.17;;;18.70;65.60;;;;;;4959818;28;20219;-92
2021/06/12 10:44:46;;;;;;;7.85;1.77;;;18.90;65.90;;;;;;4973449;28;20224;-91
2021/06/12 10:47:12;;;;;;;12.70;2.28;;;18.90;65.90;;;;;;4972566;28;20233;-91
2021/06/12 10:49:39;;;;;;;5.88;2.08;;;18.90;67.40;;;;;;4972772;28;20179;-91
2021/06/12 10:52:05;;;;;;;6.60;2.55;;;19.20;66.60;;;;;;4957094;28;20174;-91
2021/06/12 10:54:35;;;;;;;11.02;2.20;;;19.20;67.20;;;;;;4955224;28;20179;-91
2021/06/12 10:57:02;;;;;;;6.28;2.42;;;19.30;64.60;;;;;;4972499;28;20194;-92
2021/06/12 10:59:45;;;;;;;6.93;2.85;;;19.20;65.40;;;;;;4958933;28;20179;-91
2021/06/12 11:02:40;;;;;;;7.18;2.10;;;19.50;65.20;;;;;;4973840;28;20206;-93
2021/06/12 11:05:09;;;;;;;11.50;2.50;;;19.20;64.70;;;;;;4973281;28;20175;-93
2021/06/12 11:07:41;;;;;;;8.75;2.50;;;19.50;66.20;;;;;;4978058;28;20202;-93
2021/06/12 11:10:12;;;;;;;7.88;2.67;;;19.50;65.10;;;;;;4955987;28;20545;-92
2021/06/12 11:12:39;;;;;;;13.75;2.72;;;19.50;65.60;;;;;;4955940;28;20171;-91
2021/06/12 11:15:21;;;;;;;3.90;2.10;;;19.10;65.20;;;;;;4958318;28;20279;-92
2021/06/12 11:18:17;;;;;;;10.65;2.80;;;18.70;67.50;;;;;;4959709;28;20222;-92
2021/06/12 11:21:06;;;;;;;8.73;2.50;;;18.90;66.70;;;;;;4971442;28;20210;-93
2021/06/12 11:23:53;;;;;;;6.95;2.10;;;19.00;66.00;;;;;;4961086;28;20179;-91
2021/06/12 11:26:19;;;;;;;8.27;2.83;;;19.20;64.60;;;;;;4976702;28;20237;-93
2021/06/12 11:28:47;;;;;;;11.30;2.33;;;19.00;65.90;;;;;;4960453;28;20183;-92
2021/06/12 11:31:37;;;;;;;9.82;2.65;;;19.00;65.80;;;;;;4973802;28;20211;-92
2021/06/12 11:34:13;;;;;;;8.32;3.20;;;18.70;66.10;;;;;;4973852;28;20171;-92
2021/06/12 11:36:39;;;;;;;6.07;2.42;;;19.10;66.30;;;;;;4973669;28;20682;-92
2021/06/12 11:39:05;;;;;;;12.30;2.47;;;19.20;66.70;;;;;;4975375;28;20257;-92
2021/06/12 11:41:31;;;;;;;8.50;2.05;;;19.50;66.20;;;;;;4973560;28;20679;-92
2021/06/12 11:43:59;;;;;;;5.28;2.40;;;19.70;64.20;;;;;;4972965;28;20162;-92
2021/06/12 11:46:25;;;;;;;12.27;2.72;;;19.80;63.00;;;;;;4972838;28;20206;-92
2021/06/12 11:48:53;;;;;;;10.82;2.58;;;19.20;65.10;;;;;;4960631;28;20155;-92
2021/06/12 11:51:25;;;;;;;13.25;2.63;;;19.40;64.00;;;;;;4975779;28;20250;-93
2021/06/12 11:54:06;;;;;;;9.52;2.28;;;19.90;64.00;;;;;;4977446;28;20155;-93
2021/06/12 11:56:54;;;;;;;6.97;1.67;;;19.60;63.00;;;;;;4957539;28;20195;-93
2021/06/12 11:59:22;;;;;;;3.53;1.60;;;19.50;63.40;;;;;;4976933;28;20219;-92
2021/06/12 12:01:57;;;;;;;6.45;2.15;;;19.60;63.60;;;;;;4961256;28;20175;-93
2021/06/12 12:04:23;;;;;;;5.05;2.13;;;19.70;63.90;;;;;;4973270;28;20151;-93
2021/06/12 12:06:54;;;;;;;6.28;1.60;;;19.70;60.50;;;;;;4973167;28;20754;-92
2021/06/12 12:09:31;;;;;;;8.68;2.17;;;19.90;60.40;;;;;;4957316;28;20270;-92
2021/06/12 12:12:02;;;;;;;8.80;1.85;;;20.10;61.20;;;;;;4976375;28;20614;-91
2021/06/12 12:14:34;;;;;;;11.68;2.55;;;19.90;59.30;;;;;;4964035;28;20183;-92
2021/06/12 12:17:01;;;;;;;6.07;1.73;;;19.90;61.00;;;;;;4959875;28;20205;-92
2021/06/12 12:19:28;;;;;;;8.23;2.10;;;20.20;57.90;;;;;;4975356;28;20178;-91
2021/06/12 12:21:57;;;;;;;7.30;2.17;;;20.30;57.90;;;;;;4975140;28;20186;-91
2021/06/12 12:24:23;;;;;;;11.50;2.00;;;20.60;58.80;;;;;;4974602;28;20174;-92
2021/06/12 12:27:05;;;;;;;6.50;1.80;;;20.30;58.70;;;;;;4974752;28;20206;-93
2021/06/12 12:29:33;;;;;;;4.43;1.70;;;20.00;58.30;;;;;;4974690;28;20178;-92
2021/06/12 12:32:01;;;;;;;4.22;1.70;;;19.90;57.50;;;;;;4957991;28;20229;-92
2021/06/12 12:34:32;;;;;;;8.43;1.90;;;20.00;58.20;;;;;;4957166;28;20216;-91
2021/06/12 12:36:58;;;;;;;8.85;2.53;;;19.70;58.40;;;;;;4974526;28;20682;-91
2021/06/12 12:39:34;;;;;;;5.25;1.80;;;19.70;60.10;;;;;;4974354;28;20202;-91